Terminal Aerodrome Forecast
Issued by NWS Wilmington, OH

Current Version | Previous Version | Graphics & Text | Print | Product List | Glossary On
Versions: 1 2 3 4 5 6 7 8 9 10 11 12 13 14 15 16 17 18 19 20 21 22 23 24
735
FTUS41 KILN 101747
TAFCVG
TAF
KCVG 101747Z 1018/1124 22014G22KT P6SM OVC090
     FM102200 22010KT P6SM SCT150
     FM110000 22006KT P6SM SCT040
     FM110300 25006KT P6SM SCT200
     FM110600 VRB03KT P6SM SCT200
     FM111400 19005KT P6SM BKN100=

USA.gov is the U.S. government's official web portal to all federal, state and local government web resources and services.